createdAt,value
2019-04-26T00:04:49.321Z,16.67
2019-04-26T00:09:55.956Z,15.20
2019-04-26T00:15:21.234Z,13.43
2019-04-26T00:20:26.732Z,15.43
2019-04-26T00:25:31.895Z,14.60
2019-04-26T00:30:36.875Z,14.30
2019-04-26T00:35:47.879Z,15.10
2019-04-26T00:40:49.914Z,15.97
2019-04-26T00:45:56.655Z,16.67
2019-04-26T00:51:04.064Z,14.77
2019-04-26T00:56:10.063Z,18.27
2019-04-26T01:01:16.819Z,15.37
2019-04-26T01:06:23.454Z,16.37
2019-04-26T01:11:28.478Z,15.03
2019-04-26T01:16:33.596Z,16.00
2019-04-26T01:21:41.656Z,15.40
2019-04-26T01:26:49.056Z,14.97
2019-04-26T01:31:59.928Z,14.03
2019-04-26T01:37:05.219Z,15.47
2019-04-26T01:42:12.096Z,13.30
2019-04-26T01:47:17.659Z,14.80
2019-04-26T01:52:24.039Z,15.57
2019-04-26T01:57:31.569Z,15.23
2019-04-26T02:02:57.407Z,12.27
2019-04-26T02:08:02.609Z,15.10
2019-04-26T02:13:07.768Z,14.80
2019-04-26T02:18:12.963Z,14.13
2019-04-26T02:23:35.949Z,12.80
2019-04-26T02:28:41.145Z,13.07
2019-04-26T02:33:46.111Z,12.50
2019-04-26T02:38:53.300Z,12.63
2019-04-26T02:44:01.435Z,13.73
2019-04-26T02:49:11.704Z,13.43
2019-04-26T02:54:27.888Z,13.10
2019-04-26T02:59:40.772Z,14.57
2019-04-26T03:04:48.436Z,13.17
2019-04-26T03:09:54.446Z,12.63
2019-04-26T03:15:13.831Z,12.17
2019-04-26T03:20:20.326Z,15.60
2019-04-26T03:25:35.209Z,13.27
2019-04-26T03:30:53.003Z,12.40
2019-04-26T03:36:14.396Z,12.27
2019-04-26T03:41:41.045Z,12.33
2019-04-26T03:46:52.093Z,12.87
2019-04-26T03:52:18.454Z,12.40
2019-04-26T03:57:44.306Z,13.53
2019-04-26T04:03:11.869Z,13.23
2019-04-26T04:08:22.651Z,13.70
2019-04-26T04:13:50.483Z,14.43
2019-04-26T04:19:01.218Z,16.03
2019-04-26T04:24:09.613Z,11.57
2019-04-26T04:29:42.974Z,13.00
2019-04-26T04:34:47.536Z,18.07
2019-04-26T04:40:29.271Z,18.40
2019-04-26T04:45:59.750Z,17.10
2019-04-26T04:51:23.015Z,17.33
2019-04-26T04:56:46.140Z,21.90
2019-04-26T05:02:07.716Z,25.80
2019-04-26T05:07:30.675Z,31.63
2019-04-26T05:12:38.708Z,38.17
2019-04-26T05:17:58.903Z,30.00
2019-04-26T05:23:18.119Z,32.50
2019-04-26T05:28:42.795Z,27.60
2019-04-26T05:34:13.817Z,34.57
2019-04-26T05:39:27.595Z,39.67
2019-04-26T05:44:43.146Z,29.77
2019-04-26T05:50:36.865Z,22.37
2019-04-26T05:56:21.346Z,21.10
2019-04-26T06:02:01.142Z,15.40
2019-04-26T06:07:25.712Z,16.33
2019-04-26T06:12:37.917Z,16.57
2019-04-26T06:18:11.476Z,17.43
2019-04-26T06:23:25.284Z,15.03
2019-04-26T06:28:56.366Z,16.07
2019-04-26T06:34:06.950Z,13.97
2019-04-26T06:39:22.084Z,15.67
2019-04-26T06:44:31.802Z,13.30
2019-04-26T06:49:59.108Z,13.70
2019-04-26T06:55:14.792Z,12.03
2019-04-26T07:00:23.966Z,13.37
2019-04-26T07:05:32.022Z,11.23
2019-04-26T07:10:52.262Z,10.70
2019-04-26T07:16:22.842Z,14.33
2019-04-26T07:22:16.236Z,12.00
2019-04-26T07:27:39.210Z,11.73
2019-04-26T07:32:53.028Z,10.60
2019-04-26T07:38:28.856Z,12.43
2019-04-26T07:43:41.586Z,9.80
2019-04-26T07:49:10.183Z,9.73
2019-04-26T07:54:33.006Z,7.93
2019-04-26T08:00:08.796Z,8.67
2019-04-26T08:05:22.276Z,8.27
2019-04-26T08:10:40.727Z,9.47
2019-04-26T08:15:56.427Z,8.20
2019-04-26T08:21:10.026Z,7.90
2019-04-26T08:26:13.875Z,7.83
2019-04-26T08:31:24.346Z,7.40
2019-04-26T08:36:32.733Z,7.50
2019-04-26T08:41:40.241Z,7.73
2019-04-26T08:46:51.765Z,6.27
2019-04-26T08:51:59.729Z,5.70
2019-04-26T08:57:08.601Z,6.57
2019-04-26T09:02:24.134Z,6.35
2019-04-26T09:07:36.283Z,6.17
2019-04-26T09:12:42.601Z,6.28
2019-04-26T09:17:47.801Z,5.70
2019-04-26T09:23:06.796Z,6.65
2019-04-26T09:28:19.148Z,4.60
2019-04-26T09:33:41.031Z,5.78
2019-04-26T09:38:46.087Z,6.15
2019-04-26T09:43:54.922Z,4.83
2019-04-26T09:49:03.016Z,5.45
2019-04-26T09:54:08.964Z,5.30
2019-04-26T09:59:13.999Z,4.47
2019-04-26T10:04:19.147Z,5.58
2019-04-26T10:09:26.016Z,5.15
2019-04-26T10:14:39.134Z,3.85
2019-04-26T10:19:45.809Z,4.25
2019-04-26T10:24:50.995Z,4.80
2019-04-26T10:30:07.180Z,4.80
2019-04-26T10:35:02.835Z,4.78
2019-04-26T10:40:09.234Z,4.80
2019-04-26T10:45:16.344Z,4.15
2019-04-26T10:50:22.082Z,3.83
2019-04-26T10:55:28.887Z,5.15
2019-04-26T11:00:38.595Z,3.83
2019-04-26T11:05:44.859Z,3.77
2019-04-26T11:10:50.186Z,4.17
2019-04-26T11:15:55.281Z,4.30
2019-04-26T11:21:00.326Z,3.60
2019-04-26T11:26:05.626Z,4.47
2019-04-26T11:31:10.637Z,4.55
2019-04-26T11:36:16.683Z,4.12
2019-04-26T11:41:21.825Z,4.03
2019-04-26T11:46:29.134Z,3.42
2019-04-26T11:51:33.467Z,3.42
2019-04-26T11:56:38.834Z,3.72
2019-04-26T12:01:44.254Z,3.90
2019-04-26T12:06:56.864Z,6.80
2019-04-26T12:12:04.947Z,3.10
2019-04-26T12:17:09.691Z,3.65
2019-04-26T12:22:14.810Z,4.00
2019-04-26T12:27:19.845Z,3.50
2019-04-26T12:32:24.912Z,3.52
2019-04-26T12:37:31.034Z,3.70
2019-04-26T12:42:36.123Z,4.75
2019-04-26T12:47:45.658Z,3.90
2019-04-26T12:52:51.524Z,4.00
2019-04-26T12:57:57.575Z,3.83
2019-04-26T13:03:04.342Z,3.58
2019-04-26T13:08:09.432Z,3.22
2019-04-26T13:13:16.192Z,2.95
2019-04-26T13:18:21.338Z,3.37
2019-04-26T13:23:29.957Z,4.25
2019-04-26T13:28:33.083Z,3.00
2019-04-26T13:33:38.131Z,2.70
2019-04-26T13:38:44.999Z,3.30
2019-04-26T13:43:49.911Z,3.25
2019-04-26T13:49:14.353Z,3.10
2019-04-26T13:54:21.175Z,4.62
2019-04-26T13:59:28.145Z,3.17
2019-04-26T14:04:32.646Z,3.20
2019-04-26T14:09:37.611Z,2.83
2019-04-26T14:14:42.624Z,2.87
2019-04-26T14:19:49.455Z,2.95
2019-04-26T14:24:57.051Z,3.10
2019-04-26T14:30:06.480Z,2.83
2019-04-26T14:35:11.528Z,3.02
2019-04-26T14:40:17.715Z,2.35
2019-04-26T14:45:24.165Z,5.45
2019-04-26T14:50:32.060Z,3.55
2019-04-26T14:55:37.207Z,2.92
2019-04-26T15:00:44.076Z,3.00
2019-04-26T15:05:59.810Z,2.90
2019-04-26T15:11:04.902Z,2.40
2019-04-26T15:16:11.818Z,2.80
2019-04-26T15:21:16.552Z,3.20
2019-04-26T15:26:24.405Z,2.70
2019-04-26T15:31:28.451Z,3.08
2019-04-26T15:36:33.459Z,3.40
2019-04-26T15:41:40.219Z,3.30
2019-04-26T15:46:48.633Z,2.33
2019-04-26T15:51:56.376Z,2.60
2019-04-26T15:57:02.110Z,2.67
2019-04-26T16:02:07.742Z,4.05
2019-04-26T16:07:16.677Z,2.15
2019-04-26T16:12:20.316Z,2.22
2019-04-26T16:17:26.156Z,2.67
2019-04-26T16:22:33.153Z,2.83
2019-04-26T16:27:37.995Z,4.25
2019-04-26T16:32:54.094Z,3.60
2019-04-26T16:38:00.126Z,3.12
2019-04-26T16:43:05.430Z,4.28
2019-04-26T16:48:10.888Z,4.30
2019-04-26T16:53:37.846Z,4.50
2019-04-26T16:58:24.655Z,5.10
2019-04-26T17:03:29.246Z,5.10
2019-04-26T17:08:34.350Z,4.50
2019-04-26T17:13:49.189Z,3.75
2019-04-26T17:18:46.219Z,3.52
2019-04-26T17:24:05.872Z,2.15
2019-04-26T17:29:08.942Z,4.00
2019-04-26T17:34:14.231Z,3.60
2019-04-26T17:39:19.351Z,3.15
2019-04-26T17:44:26.414Z,4.95
2019-04-26T17:49:34.531Z,4.53
2019-04-26T17:54:48.978Z,4.60
2019-04-26T17:59:47.760Z,5.15
2019-04-26T18:04:58.893Z,4.28
2019-04-26T18:10:04.355Z,4.33
2019-04-26T18:15:09.554Z,4.00
2019-04-26T18:20:29.621Z,4.35
2019-04-26T18:25:34.751Z,4.15
2019-04-26T18:30:40.305Z,4.25
2019-04-26T18:35:49.326Z,5.05
2019-04-26T18:41:00.978Z,4.58
2019-04-26T18:46:03.434Z,5.70
2019-04-26T18:51:11.151Z,4.78
2019-04-26T18:56:15.308Z,4.17
2019-04-26T19:01:20.358Z,4.15
2019-04-26T19:06:31.610Z,5.65
2019-04-26T19:11:34.209Z,5.50
2019-04-26T19:16:59.284Z,6.35
2019-04-26T19:22:09.387Z,5.25
2019-04-26T19:27:15.763Z,5.55
2019-04-26T19:32:21.857Z,4.92
2019-04-26T19:37:30.435Z,4.83
2019-04-26T19:42:34.367Z,5.47
2019-04-26T19:47:43.975Z,5.00
2019-04-26T19:52:49.445Z,4.57
2019-04-26T19:58:05.187Z,5.10
2019-04-26T20:03:13.471Z,4.40
2019-04-26T20:08:17.183Z,5.83
2019-04-26T20:13:22.306Z,4.33
2019-04-26T20:18:27.418Z,4.20
2019-04-26T20:23:33.811Z,5.27
2019-04-26T20:28:38.967Z,4.43
2019-04-26T20:33:44.083Z,5.00
2019-04-26T20:38:49.190Z,4.63
2019-04-26T20:44:04.965Z,4.37
2019-04-26T20:49:01.432Z,4.80
2019-04-26T20:54:10.718Z,5.53
2019-04-26T20:59:16.631Z,4.43
2019-04-26T21:04:34.891Z,4.67
2019-04-26T21:09:28.954Z,4.07
2019-04-26T21:14:37.324Z,4.93
2019-04-26T21:19:41.711Z,4.70
2019-04-26T21:25:04.726Z,4.33
2019-04-26T21:30:13.517Z,5.73
2019-04-26T21:35:25.028Z,5.63
2019-04-26T21:40:31.583Z,5.50
2019-04-26T21:45:36.698Z,6.10
2019-04-26T21:50:44.362Z,5.30
2019-04-26T21:55:49.536Z,5.33
2019-04-26T22:01:11.065Z,5.30
2019-04-26T22:06:20.007Z,6.30
2019-04-26T22:11:24.048Z,6.00
2019-04-26T22:16:37.970Z,5.13
2019-04-26T22:22:05.784Z,4.33
2019-04-26T22:27:07.239Z,5.70
2019-04-26T22:32:15.936Z,5.27
2019-04-26T22:37:29.629Z,5.80
2019-04-26T22:42:27.326Z,6.77
2019-04-26T22:47:40.689Z,6.17
2019-04-26T22:52:44.492Z,5.90
2019-04-26T22:57:49.611Z,7.97
2019-04-26T23:02:57.999Z,6.13
2019-04-26T23:08:01.096Z,6.03
2019-04-26T23:13:08.177Z,5.87
2019-04-26T23:18:17.682Z,6.33
2019-04-26T23:23:23.655Z,5.93
2019-04-26T23:28:34.062Z,5.93
2019-04-26T23:33:35.247Z,5.50
2019-04-26T23:38:40.282Z,5.50
2019-04-26T23:43:45.271Z,6.27
2019-04-26T23:48:50.266Z,6.40
2019-04-26T23:53:57.797Z,7.70
2019-04-26T23:59:03.580Z,9.07
